Terminal Aerodrome Forecast
Issued by NWS Wilmington, OH

Current Version | Previous Version | Graphics & Text | Print | Product List | Glossary On
Versions: 1 2 3 4 5 6 7 8 9 10 11 12 13 14 15 16 17
188
FTUS41 KILN 292341
TAFCMH
TAF
KCMH 292341Z 3000/3024 16007KT P6SM VCTS SCT040CB
     FM300200 24006KT P6SM SCT050 BKN100
     FM300500 28004KT P6SM SKC
     FM301500 33008KT P6SM SCT050
     FM302200 31005KT P6SM SKC=

USA.gov is the U.S. government's official web portal to all federal, state and local government web resources and services.